Time;durP1;ratioP1;P1;durP2;ratioP2;P2;SDS_P1;SDS_P2;PMS_P1;PMS_P2;Temp;Humidity;BMP_temperature;BMP_pressure;BME280_temperature;BME280_humidity;BME280_pressure;Samples;Min_cycle;Max_cycle;Signal;HPM_P1;HPM_P2
2021/03/19 00:02:23;;;;;;;4.85;0.60;;;2.70;99.90;;;;;;5036341;28;20387;-75
2021/03/19 00:04:50;;;;;;;3.05;0.30;;;2.80;99.90;;;;;;5034806;28;20017;-75
2021/03/19 00:07:16;;;;;;;2.65;0.17;;;2.70;99.90;;;;;;5036168;28;20014;-75
2021/03/19 00:09:42;;;;;;;4.10;0.63;;;2.70;99.90;;;;;;5035339;28;20032;-75
2021/03/19 00:12:08;;;;;;;1.95;0.08;;;2.70;99.90;;;;;;5036360;28;20534;-74
2021/03/19 00:14:33;;;;;;;3.00;0.45;;;2.80;99.90;;;;;;5037792;28;20033;-75
2021/03/19 00:16:59;;;;;;;3.42;0.40;;;2.80;99.90;;;;;;5036927;28;20017;-76
2021/03/19 00:19:24;;;;;;;1.65;0.20;;;2.90;99.90;;;;;;5035115;28;20017;-74
2021/03/19 00:21:50;;;;;;;2.92;0.57;;;2.90;99.90;;;;;;5063202;22;20067;-74
2021/03/19 00:24:16;;;;;;;2.90;0.25;;;2.90;99.90;;;;;;5057846;22;20042;-75
2021/03/19 00:26:42;;;;;;;2.33;0.30;;;2.90;99.90;;;;;;5037102;28;20483;-74
2021/03/19 00:29:09;;;;;;;2.92;0.43;;;2.80;99.90;;;;;;5035606;28;20021;-74
2021/03/19 00:31:34;;;;;;;1.35;0.28;;;2.70;99.90;;;;;;5037833;23;20033;-74
2021/03/19 00:34:00;;;;;;;1.67;0.60;;;2.60;99.90;;;;;;5075778;28;20036;-74
2021/03/19 00:36:25;;;;;;;3.78;0.77;;;2.60;99.90;;;;;;5075435;28;20028;-76
2021/03/19 00:38:51;;;;;;;3.85;0.70;;;2.50;99.90;;;;;;5109834;22;20016;-75
2021/03/19 00:41:18;;;;;;;4.78;1.08;;;2.20;99.90;;;;;;5016435;28;20139;-73
2021/03/19 00:43:43;;;;;;;5.45;1.42;;;2.50;99.90;;;;;;5036070;28;20467;-76
2021/03/19 00:46:12;;;;;;;1.67;0.90;;;2.50;99.90;;;;;;5035879;28;20018;-74
2021/03/19 00:48:38;;;;;;;4.00;0.65;;;2.50;99.90;;;;;;5035492;28;20017;-75
2021/03/19 00:51:03;;;;;;;2.60;0.52;;;2.50;99.90;;;;;;5035143;28;20033;-75
2021/03/19 00:53:29;;;;;;;2.65;0.95;;;2.40;99.90;;;;;;5037370;28;20087;-76
2021/03/19 00:55:56;;;;;;;5.00;1.45;;;2.40;99.90;;;;;;5035651;28;20026;-74
2021/03/19 00:58:22;;;;;;;2.67;0.95;;;2.30;99.90;;;;;;5057405;23;20042;-74
2021/03/19 01:00:47;;;;;;;3.17;0.43;;;2.30;99.90;;;;;;5035375;28;20360;-75
2021/03/19 01:03:13;;;;;;;4.13;0.88;;;2.20;99.90;;;;;;5034329;28;20030;-75
2021/03/19 01:05:44;;;;;;;2.55;0.57;;;2.20;99.90;;;;;;5033377;28;20470;-75
2021/03/19 01:08:12;;;;;;;1.83;0.63;;;2.20;99.90;;;;;;5033761;28;20474;-75
2021/03/19 01:10:42;;;;;;;4.07;0.77;;;2.10;99.90;;;;;;5034173;28;20013;-75
2021/03/19 01:13:08;;;;;;;1.58;0.55;;;2.10;99.90;;;;;;5032749;28;20080;-75
2021/03/19 01:15:34;;;;;;;3.97;0.45;;;2.10;99.90;;;;;;5033256;28;20513;-76
2021/03/19 01:18:01;;;;;;;2.55;0.35;;;2.00;99.90;;;;;;5034244;28;20116;-76
2021/03/19 01:20:30;;;;;;;1.08;0.30;;;1.90;99.90;;;;;;5034472;28;20498;-75
2021/03/19 01:22:55;;;;;;;2.40;0.47;;;1.90;99.90;;;;;;5033462;28;20028;-75
2021/03/19 01:25:23;;;;;;;1.48;0.43;;;1.90;99.90;;;;;;5034233;28;20462;-75
2021/03/19 01:27:48;;;;;;;3.83;0.38;;;1.80;99.90;;;;;;5034845;28;20026;-75
2021/03/19 01:30:17;;;;;;;2.10;0.70;;;1.80;99.90;;;;;;5035742;28;20497;-75
2021/03/19 01:32:44;;;;;;;0.95;0.30;;;1.70;99.90;;;;;;5035582;28;20046;-75
2021/03/19 01:35:11;;;;;;;1.85;0.50;;;1.70;99.90;;;;;;5035214;28;20382;-75
2021/03/19 01:40:08;;;;;;;1.67;0.60;;;1.60;99.90;;;;;;5013777;28;20453;-76
2021/03/19 01:42:38;;;;;;;1.42;0.38;;;1.60;99.90;;;;;;5014428;28;20041;-75
2021/03/19 01:45:07;;;;;;;3.13;0.57;;;1.50;99.90;;;;;;5014617;28;20030;-77
2021/03/19 01:48:10;;;;;;;1.85;0.40;;;1.50;99.90;;;;;;5043913;23;20053;-74
2021/03/19 01:51:13;;;;;;;4.53;0.93;;;1.50;99.90;;;;;;5033330;28;20083;-74
2021/03/19 01:54:16;;;;;;;4.82;0.43;;;1.50;99.90;;;;;;5034300;28;20033;-74
2021/03/19 01:57:19;;;;;;;3.78;0.98;;;1.50;99.90;;;;;;5015000;28;20108;-74
2021/03/19 02:00:22;;;;;;;1.70;0.30;;;1.40;99.90;;;;;;5014809;28;20057;-74
2021/03/19 02:03:25;;;;;;;1.95;0.40;;;1.40;99.90;;;;;;5018083;28;20045;-74
2021/03/19 02:06:28;;;;;;;2.42;1.02;;;1.40;99.90;;;;;;5034571;28;20536;-74
2021/03/19 02:09:31;;;;;;;1.23;0.47;;;1.40;99.90;;;;;;5036031;28;20075;-74
2021/03/19 02:12:34;;;;;;;1.17;0.20;;;1.30;99.90;;;;;;5034088;28;20030;-74
2021/03/19 02:15:36;;;;;;;4.53;0.93;;;1.30;99.90;;;;;;5033948;28;20064;-74
2021/03/19 02:18:39;;;;;;;5.55;0.75;;;1.30;99.90;;;;;;5033892;28;20037;-73
2021/03/19 02:21:42;;;;;;;1.67;0.22;;;1.30;99.90;;;;;;5034478;28;20037;-73
2021/03/19 02:24:45;;;;;;;4.13;0.50;;;1.20;99.90;;;;;;5014584;28;20033;-75
2021/03/19 02:27:48;;;;;;;4.90;0.55;;;1.20;99.90;;;;;;5015525;28;20018;-73
2021/03/19 02:30:50;;;;;;;6.43;1.45;;;1.20;99.90;;;;;;5034885;28;20033;-73
2021/03/19 02:33:16;;;;;;;6.72;0.50;;;1.20;99.90;;;;;;5037195;28;20040;-73
2021/03/19 02:35:54;;;;;;;2.45;0.60;;;1.20;99.90;;;;;;5039165;28;20113;-74
2021/03/19 02:38:20;;;;;;;7.45;0.80;;;1.10;99.90;;;;;;5038144;28;20382;-77
2021/03/19 02:40:46;;;;;;;3.95;0.60;;;1.10;99.90;;;;;;5056619;23;20436;-74
2021/03/19 02:43:12;;;;;;;4.15;0.68;;;1.10;99.90;;;;;;5058852;28;20025;-74
2021/03/19 02:45:37;;;;;;;2.20;0.45;;;1.10;99.90;;;;;;5057377;28;20028;-74
2021/03/19 02:48:03;;;;;;;7.22;0.40;;;1.00;99.90;;;;;;5042559;28;20013;-76
2021/03/19 02:50:29;;;;;;;6.05;0.65;;;1.00;99.90;;;;;;5039463;28;20017;-74
2021/03/19 02:52:54;;;;;;;5.72;1.38;;;1.00;99.90;;;;;;5036738;28;20083;-74
2021/03/19 02:55:20;;;;;;;5.18;0.55;;;1.10;99.90;;;;;;5037963;28;20382;-73
2021/03/19 02:57:45;;;;;;;6.15;0.65;;;1.00;99.90;;;;;;5036467;28;20036;-73
2021/03/19 03:00:19;;;;;;;2.42;1.02;;;1.00;99.90;;;;;;5029117;28;20087;-73
2021/03/19 03:02:45;;;;;;;3.90;0.60;;;1.00;99.90;;;;;;5015867;28;20037;-74
2021/03/19 03:05:11;;;;;;;2.75;0.60;;;0.90;99.90;;;;;;5016964;28;20479;-74
2021/03/19 03:07:37;;;;;;;6.53;0.77;;;0.90;99.90;;;;;;5017064;28;20033;-74
2021/03/19 03:10:06;;;;;;;1.45;0.50;;;0.90;99.90;;;;;;5017170;28;20072;-74
2021/03/19 03:12:31;;;;;;;3.08;0.35;;;0.90;99.90;;;;;;5028267;28;20029;-74
2021/03/19 03:14:57;;;;;;;2.95;0.40;;;0.90;99.90;;;;;;5035068;28;20561;-73
2021/03/19 03:17:23;;;;;;;3.47;0.75;;;0.90;99.90;;;;;;5027002;28;20018;-73
2021/03/19 03:19:49;;;;;;;6.22;0.50;;;0.90;99.90;;;;;;5015681;28;20026;-73
2021/03/19 03:22:15;;;;;;;6.45;0.75;;;0.90;99.90;;;;;;5027341;28;20017;-73
2021/03/19 03:24:40;;;;;;;2.97;0.55;;;0.90;99.90;;;;;;5036608;28;20116;-73
2021/03/19 03:27:08;;;;;;;3.63;0.90;;;0.90;99.90;;;;;;5035203;28;20052;-73
2021/03/19 03:29:35;;;;;;;2.60;0.80;;;0.90;99.90;;;;;;5040171;28;20075;-73
2021/03/19 03:32:00;;;;;;;1.83;0.40;;;0.90;99.90;;;;;;5041034;28;20357;-73
2021/03/19 03:34:26;;;;;;;3.08;0.47;;;0.80;99.90;;;;;;5038701;28;20040;-73
2021/03/19 03:36:53;;;;;;;2.53;0.40;;;0.80;99.90;;;;;;5029175;28;20109;-73
2021/03/19 03:39:27;;;;;;;5.32;0.45;;;0.70;99.90;;;;;;5019612;28;20026;-73
2021/03/19 03:41:55;;;;;;;5.07;0.38;;;0.70;99.90;;;;;;5036576;28;20049;-73
2021/03/19 03:44:21;;;;;;;5.03;0.47;;;0.70;99.90;;;;;;5038230;28;20025;-73
2021/03/19 03:46:48;;;;;;;3.47;0.50;;;0.70;99.90;;;;;;5039449;28;20057;-73
2021/03/19 03:49:15;;;;;;;2.80;0.57;;;0.70;99.90;;;;;;5038961;28;20097;-73
2021/03/19 03:51:42;;;;;;;4.57;0.68;;;0.70;99.90;;;;;;5020893;28;20501;-73
2021/03/19 03:54:07;;;;;;;2.78;0.45;;;0.70;99.90;;;;;;5019938;28;20130;-74
2021/03/19 03:56:33;;;;;;;6.78;0.55;;;0.70;99.90;;;;;;5040078;28;20057;-73
2021/03/19 03:58:59;;;;;;;3.55;0.47;;;0.60;99.90;;;;;;5040562;28;20083;-73
2021/03/19 04:01:26;;;;;;;4.13;0.82;;;0.60;99.90;;;;;;5021789;28;20036;-73
2021/03/19 04:03:51;;;;;;;5.10;0.50;;;0.70;99.90;;;;;;5018268;28;20022;-74
2021/03/19 04:06:18;;;;;;;1.90;0.30;;;0.60;99.90;;;;;;5019823;28;20025;-74
2021/03/19 04:08:43;;;;;;;4.53;0.60;;;0.60;99.90;;;;;;5035063;28;20040;-75
2021/03/19 04:11:13;;;;;;;4.10;0.77;;;0.60;99.90;;;;;;5035143;28;20029;-74
2021/03/19 04:13:39;;;;;;;5.45;1.08;;;0.60;99.90;;;;;;5036158;28;20032;-73
2021/03/19 04:16:05;;;;;;;1.50;0.30;;;0.60;99.90;;;;;;5049762;23;20076;-73
2021/03/19 04:18:30;;;;;;;3.83;0.70;;;0.50;99.90;;;;;;5074925;28;20078;-74
2021/03/19 04:20:58;;;;;;;4.47;0.65;;;0.50;99.90;;;;;;5075453;28;20024;-75
2021/03/19 04:23:25;;;;;;;7.68;0.95;;;0.50;99.90;;;;;;5074889;28;20036;-74
2021/03/19 04:25:51;;;;;;;7.45;0.43;;;0.50;99.90;;;;;;5075317;28;20036;-75
2021/03/19 04:28:20;;;;;;;4.15;0.47;;;0.40;99.90;;;;;;5075675;28;20482;-73
2021/03/19 04:30:47;;;;;;;2.53;1.00;;;0.40;99.90;;;;;;5076136;28;20390;-74
2021/03/19 04:33:16;;;;;;;5.85;1.00;;;0.40;99.90;;;;;;5074457;28;20052;-75
2021/03/19 04:35:42;;;;;;;4.82;0.40;;;0.30;99.90;;;;;;5074367;28;20393;-75
2021/03/19 04:38:14;;;;;;;2.60;0.38;;;0.40;99.90;;;;;;5058856;23;20041;-77
2021/03/19 04:40:42;;;;;;;3.28;0.43;;;0.40;99.90;;;;;;5035049;28;20024;-76
2021/03/19 04:43:08;;;;;;;4.45;0.50;;;0.30;99.90;;;;;;5034525;23;20131;-74
2021/03/19 04:45:37;;;;;;;7.82;0.80;;;0.30;99.90;;;;;;4999553;28;20072;-74
2021/03/19 04:48:03;;;;;;;3.80;0.68;;;0.30;99.90;;;;;;4998063;28;20022;-73
2021/03/19 04:50:29;;;;;;;3.00;0.35;;;0.30;99.90;;;;;;5015611;28;20399;-73
2021/03/19 04:52:54;;;;;;;6.97;0.52;;;0.30;99.90;;;;;;5015602;28;20484;-73
2021/03/19 04:55:20;;;;;;;3.05;0.38;;;0.30;99.90;;;;;;4998004;28;20025;-73
2021/03/19 04:57:45;;;;;;;3.70;0.60;;;0.30;99.90;;;;;;5014152;28;20025;-73
2021/03/19 05:00:13;;;;;;;9.32;0.65;;;0.20;99.90;;;;;;5015351;28;20499;-73
2021/03/19 05:02:42;;;;;;;3.80;0.55;;;0.20;99.90;;;;;;5015311;28;20033;-73
2021/03/19 05:05:12;;;;;;;4.43;0.38;;;0.20;99.90;;;;;;4997196;28;20440;-73
2021/03/19 05:07:37;;;;;;;4.68;0.80;;;0.20;99.90;;;;;;4997791;28;20053;-73
2021/03/19 05:10:04;;;;;;;5.18;0.60;;;0.20;99.90;;;;;;4997551;28;20029;-73
2021/03/19 05:12:30;;;;;;;2.78;0.30;;;0.20;99.90;;;;;;5014824;28;20018;-73
2021/03/19 05:14:56;;;;;;;6.18;0.35;;;0.10;99.90;;;;;;5015301;28;20022;-73
2021/03/19 05:17:21;;;;;;;3.80;0.85;;;0.10;99.90;;;;;;5014953;28;20030;-73
2021/03/19 05:19:47;;;;;;;5.97;1.48;;;0.10;99.90;;;;;;5014920;28;20026;-73
2021/03/19 05:22:12;;;;;;;3.45;0.77;;;0.10;99.90;;;;;;4998261;28;20022;-73
2021/03/19 05:24:38;;;;;;;4.72;0.60;;;0.10;99.90;;;;;;5014941;28;20030;-73
2021/03/19 05:27:04;;;;;;;3.38;0.70;;;0.10;99.90;;;;;;4998299;28;20033;-73
2021/03/19 05:29:29;;;;;;;6.47;0.55;;;0.10;99.90;;;;;;4998809;28;20372;-73
2021/03/19 05:31:55;;;;;;;7.05;1.05;;;0.10;99.90;;;;;;5017890;28;20021;-74
2021/03/19 05:34:21;;;;;;;3.83;0.60;;;0.00;99.90;;;;;;4998855;28;20030;-73
2021/03/19 05:36:47;;;;;;;2.25;0.30;;;0.00;99.90;;;;;;4998387;28;20073;-73
2021/03/19 05:39:12;;;;;;;8.07;0.47;;;0.00;99.90;;;;;;5000181;28;20029;-73
2021/03/19 05:41:40;;;;;;;3.78;1.27;;;0.00;99.90;;;;;;5015981;28;20030;-73
2021/03/19 05:44:07;;;;;;;6.80;0.70;;;-0.10;99.90;;;;;;5046196;22;20061;-74
2021/03/19 05:46:53;;;;;;;3.45;0.50;;;-0.20;99.90;;;;;;5064972;23;20476;-72
2021/03/19 05:49:23;;;;;;;6.40;1.42;;;-0.10;99.90;;;;;;5063599;23;20375;-73
2021/03/19 05:51:55;;;;;;;5.82;0.73;;;-0.10;99.90;;;;;;5033933;28;20397;-73
2021/03/19 05:54:52;;;;;;;3.08;0.47;;;-0.10;99.90;;;;;;5043253;23;20069;-72
2021/03/19 05:57:27;;;;;;;3.70;0.95;;;-0.10;99.90;;;;;;5004926;28;20414;-72
2021/03/19 05:59:55;;;;;;;2.28;0.43;;;-0.10;99.90;;;;;;5013722;28;20026;-73
2021/03/19 06:02:28;;;;;;;5.07;0.33;;;-0.10;99.90;;;;;;5014292;28;20014;-73
2021/03/19 06:05:15;;;;;;;7.55;0.47;;;-0.10;99.90;;;;;;5013535;28;20284;-73
2021/03/19 06:07:47;;;;;;;7.03;0.60;;;-0.10;99.90;;;;;;5013962;28;20022;-74
2021/03/19 06:10:27;;;;;;;6.75;0.80;;;0.00;99.90;;;;;;5019472;28;20029;-73
2021/03/19 06:12:57;;;;;;;5.32;0.57;;;-0.10;99.90;;;;;;5064490;23;20402;-74
2021/03/19 06:15:30;;;;;;;3.28;0.40;;;0.00;99.90;;;;;;5057816;28;20075;-73
2021/03/19 06:17:59;;;;;;;10.15;1.35;;;0.00;99.90;;;;;;5057653;28;20071;-73
2021/03/19 06:20:26;;;;;;;6.03;1.02;;;0.10;99.90;;;;;;5057479;28;20479;-75
2021/03/19 06:22:54;;;;;;;3.33;0.57;;;0.20;99.90;;;;;;5058082;28;20040;-77
2021/03/19 06:25:29;;;;;;;12.55;1.02;;;0.20;99.90;;;;;;5056506;28;20057;-75
2021/03/19 06:27:57;;;;;;;5.18;1.20;;;0.30;99.90;;;;;;5057100;28;20021;-76
2021/03/19 06:30:28;;;;;;;3.22;0.95;;;0.30;99.90;;;;;;5056595;28;20143;-75
2021/03/19 06:33:23;;;;;;;3.67;0.80;;;0.40;99.90;;;;;;5058258;28;20028;-75
2021/03/19 06:36:17;;;;;;;2.88;0.50;;;0.50;99.90;;;;;;5053136;22;20045;-73
2021/03/19 06:39:23;;;;;;;6.50;0.55;;;0.90;99.90;;;;;;5008431;28;20392;-74
2021/03/19 06:42:12;;;;;;;7.60;0.82;;;0.60;99.90;;;;;;5018724;28;20495;-75
2021/03/19 06:44:39;;;;;;;8.23;1.30;;;0.80;99.90;;;;;;5019397;28;20037;-74
2021/03/19 06:47:14;;;;;;;5.28;1.23;;;0.90;99.90;;;;;;5047214;23;20049;-76
2021/03/19 06:49:53;;;;;;;7.03;0.90;;;1.00;99.90;;;;;;5037483;28;20032;-75
2021/03/19 06:52:22;;;;;;;6.35;1.02;;;1.10;99.90;;;;;;5036925;28;20025;-76
2021/03/19 06:54:59;;;;;;;3.83;0.82;;;1.20;99.90;;;;;;5038490;28;20390;-76
2021/03/19 06:57:42;;;;;;;4.25;0.85;;;1.30;99.90;;;;;;5038613;28;20025;-75
2021/03/19 07:00:09;;;;;;;3.10;0.40;;;1.40;99.90;;;;;;5039542;28;20029;-76
2021/03/19 07:02:48;;;;;;;4.40;1.00;;;1.60;99.90;;;;;;5036929;28;20025;-75
2021/03/19 07:05:39;;;;;;;3.92;0.88;;;1.70;99.90;;;;;;5036139;28;20072;-74
2021/03/19 07:08:37;;;;;;;4.45;0.50;;;1.80;99.90;;;;;;5038304;28;20437;-75
2021/03/19 07:11:40;;;;;;;3.27;0.30;;;2.00;99.90;;;;;;5036416;28;20083;-75
2021/03/19 07:14:24;;;;;;;8.00;0.50;;;2.20;99.90;;;;;;5027001;28;20029;-73
2021/03/19 07:17:01;;;;;;;7.18;1.23;;;2.30;99.90;;;;;;5018371;28;20026;-74
2021/03/19 07:19:51;;;;;;;7.93;0.68;;;2.40;99.90;;;;;;5018362;28;20034;-72
2021/03/19 07:25:10;;;;;;;8.88;0.85;;;2.70;99.90;;;;;;5016549;28;20060;-75
2021/03/19 07:27:53;;;;;;;7.57;1.25;;;2.80;99.90;;;;;;5017047;23;20049;-74
2021/03/19 07:30:49;;;;;;;8.85;1.23;;;2.90;99.90;;;;;;5039055;28;20116;-73
2021/03/19 07:33:48;;;;;;;7.00;0.93;;;3.10;99.90;;;;;;5020514;28;20032;-73
2021/03/19 07:36:43;;;;;;;6.40;0.65;;;3.20;99.90;;;;;;5038174;28;20029;-73
2021/03/19 07:39:17;;;;;;;6.88;0.85;;;3.40;99.90;;;;;;5005158;28;20092;-75
2021/03/19 07:42:00;;;;;;;3.58;0.55;;;3.50;99.90;;;;;;5017395;28;20025;-73
2021/03/19 07:45:04;;;;;;;7.63;1.52;;;3.70;99.90;;;;;;4999750;28;20418;-73
2021/03/19 07:47:55;;;;;;;4.80;0.93;;;3.70;99.90;;;;;;5043893;23;20037;-75
2021/03/19 07:50:44;;;;;;;7.80;1.20;;;3.90;99.90;;;;;;5036828;28;20022;-75
2021/03/19 07:53:39;;;;;;;6.97;1.27;;;4.00;99.90;;;;;;5035908;28;20030;-73
2021/03/19 07:56:05;;;;;;;8.50;1.45;;;4.10;99.90;;;;;;5049248;22;20144;-74
2021/03/19 07:59:01;;;;;;;6.70;1.50;;;4.20;99.90;;;;;;5074070;23;20053;-74
2021/03/19 08:01:39;;;;;;;6.25;1.85;;;4.30;99.90;;;;;;5049369;28;20045;-73
2021/03/19 08:04:23;;;;;;;4.93;0.93;;;4.40;99.90;;;;;;5056413;28;20386;-73
2021/03/19 08:06:53;;;;;;;6.88;1.10;;;4.50;99.90;;;;;;5070871;22;20017;-76
2021/03/19 08:09:43;;;;;;;4.80;1.08;;;4.60;99.90;;;;;;5035361;28;20053;-74
2021/03/19 08:12:21;;;;;;;11.32;1.35;;;4.70;99.90;;;;;;5034706;28;20072;-75
2021/03/19 08:15:21;;;;;;;5.93;1.25;;;4.80;99.90;;;;;;5035999;28;20514;-73
2021/03/19 08:18:16;;;;;;;5.70;1.05;;;4.80;99.90;;;;;;5035527;28;20026;-74
2021/03/19 08:20:49;;;;;;;8.55;1.73;;;4.90;99.90;;;;;;5035759;28;20159;-74
2021/03/19 08:23:21;;;;;;;8.70;1.80;;;5.00;99.90;;;;;;5072101;23;20044;-72
2021/03/19 08:25:49;;;;;;;11.27;1.48;;;5.00;99.90;;;;;;5035685;28;20025;-74
2021/03/19 08:28:42;;;;;;;5.13;1.15;;;5.10;99.90;;;;;;5034665;28;20475;-75
2021/03/19 08:31:34;;;;;;;7.85;1.05;;;5.20;99.90;;;;;;5034861;28;20028;-74
2021/03/19 08:34:19;;;;;;;6.00;0.68;;;5.30;99.90;;;;;;5035417;28;20033;-75
2021/03/19 08:36:53;;;;;;;6.95;1.00;;;5.40;99.90;;;;;;5033402;28;20041;-75
2021/03/19 08:39:32;;;;;;;6.88;1.75;;;5.50;99.90;;;;;;5033397;28;20371;-76
2021/03/19 08:42:05;;;;;;;9.10;1.25;;;5.70;99.90;;;;;;5034913;28;20036;-75
2021/03/19 08:44:37;;;;;;;9.05;1.00;;;5.70;99.90;;;;;;5033743;28;20056;-74
2021/03/19 08:49:55;;;;;;;7.57;1.08;;;5.90;99.90;;;;;;5033701;28;20123;-77
2021/03/19 08:52:38;;;;;;;7.60;1.00;;;6.00;99.90;;;;;;5035657;28;20026;-76
2021/03/19 08:55:30;;;;;;;3.60;0.52;;;6.10;99.90;;;;;;5034744;28;20032;-75
2021/03/19 08:58:28;;;;;;;1.98;0.55;;;6.30;99.90;;;;;;5000934;28;20491;-75
2021/03/19 09:01:13;;;;;;;8.30;1.55;;;6.30;99.90;;;;;;4977487;28;20038;-76
2021/03/19 09:03:40;;;;;;;8.07;0.65;;;6.30;99.90;;;;;;4996479;28;20036;-76
2021/03/19 09:06:06;;;;;;;4.13;0.40;;;6.50;99.90;;;;;;4995032;28;20026;-74
2021/03/19 09:08:43;;;;;;;4.00;0.57;;;6.70;99.90;;;;;;5002717;28;20080;-76
2021/03/19 09:11:13;;;;;;;4.45;0.20;;;6.80;99.90;;;;;;4997347;28;20036;-74
2021/03/19 09:14:04;;;;;;;1.48;0.13;;;6.90;97.50;;;;;;5015270;28;20100;-75
2021/03/19 09:16:50;;;;;;;6.97;0.32;;;7.10;95.20;;;;;;4997111;28;20022;-77
2021/03/19 09:19:40;;;;;;;3.40;0.13;;;7.20;90.90;;;;;;5015199;28;20022;-74
2021/03/19 09:22:21;;;;;;;3.20;0.13;;;7.20;90.40;;;;;;5015053;28;20040;-72
2021/03/19 09:25:08;;;;;;;5.22;0.47;;;7.40;90.30;;;;;;4997431;28;20029;-76
2021/03/19 09:27:36;;;;;;;3.00;0.20;;;7.50;87.40;;;;;;4996217;28;20040;-75
2021/03/19 09:30:21;;;;;;;5.45;0.60;;;7.50;88.20;;;;;;4997201;28;20026;-74
2021/03/19 09:32:50;;;;;;;6.68;0.57;;;7.60;89.20;;;;;;5015220;28;20029;-74
2021/03/19 09:35:34;;;;;;;2.05;0.13;;;7.70;89.30;;;;;;5014764;28;20018;-77
2021/03/19 09:38:01;;;;;;;5.80;0.55;;;7.70;88.50;;;;;;4996837;28;20124;-75
2021/03/19 09:40:53;;;;;;;4.03;0.82;;;7.60;89.10;;;;;;5014228;28;20029;-76
2021/03/19 09:43:41;;;;;;;5.05;0.32;;;7.40;88.80;;;;;;5016493;28;20049;-77
2021/03/19 09:46:39;;;;;;;2.90;0.50;;;7.40;88.80;;;;;;5000763;28;20057;-76
2021/03/19 09:49:24;;;;;;;2.70;0.43;;;7.50;90.10;;;;;;4968073;28;20046;-74
2021/03/19 09:51:50;;;;;;;5.47;0.75;;;7.50;86.50;;;;;;5018180;28;20036;-76
2021/03/19 09:57:02;;;;;;;2.47;0.55;;;7.70;89.50;;;;;;5031008;28;20430;-74
2021/03/19 09:59:31;;;;;;;4.57;0.25;;;7.90;88.60;;;;;;5018375;28;20379;-73
2021/03/19 10:01:57;;;;;;;3.75;0.17;;;8.00;87.10;;;;;;5000631;28;20048;-74
2021/03/19 10:04:33;;;;;;;3.30;0.45;;;8.30;81.50;;;;;;5000210;28;20022;-76
2021/03/19 10:06:59;;;;;;;3.60;0.10;;;8.50;80.70;;;;;;4999849;28;20033;-76
2021/03/19 10:09:26;;;;;;;1.48;0.10;;;8.60;77.10;;;;;;5017962;28;20022;-75
2021/03/19 10:11:58;;;;;;;0.60;0.13;;;8.70;75.00;;;;;;5017057;28;20101;-74
2021/03/19 10:14:34;;;;;;;2.80;0.40;;;8.80;74.70;;;;;;5000216;28;20025;-74
2021/03/19 10:17:11;;;;;;;1.35;0.00;;;8.90;71.80;;;;;;5000155;28;20022;-74
2021/03/19 10:19:39;;;;;;;2.75;0.70;;;8.80;72.30;;;;;;5017959;28;20037;-75
2021/03/19 10:22:07;;;;;;;1.58;0.70;;;8.70;72.90;;;;;;5017262;28;20026;-75
2021/03/19 10:24:32;;;;;;;1.98;0.10;;;8.60;72.40;;;;;;5017203;28;20438;-77
2021/03/19 10:27:12;;;;;;;1.35;0.30;;;8.50;72.60;;;;;;5016910;28;20014;-76
2021/03/19 10:29:44;;;;;;;2.30;0.30;;;8.30;73.50;;;;;;4999597;28;20022;-77
2021/03/19 10:32:13;;;;;;;2.42;0.13;;;8.30;77.40;;;;;;5016962;28;20018;-77
2021/03/19 10:34:51;;;;;;;;;;;8.50;73.40;;;;;;5001068;28;20037;-77
2021/03/19 10:37:35;;;;;;;1.70;0.08;;;8.80;73.60;;;;;;4998693;28;20008;-77
2021/03/19 10:40:12;;;;;;;1.38;0.03;;;9.10;69.80;;;;;;5016662;28;20160;-77
2021/03/19 10:42:42;;;;;;;0.85;0.38;;;9.10;69.10;;;;;;4998948;28;20038;-77
2021/03/19 10:45:31;;;;;;;0.47;0.03;;;9.00;67.10;;;;;;4998724;28;20022;-77
2021/03/19 10:47:59;;;;;;;;;;;8.90;67.80;;;;;;5002095;28;20037;-77
2021/03/19 10:50:36;;;;;;;1.48;0.10;;;8.80;64.30;;;;;;4999183;28;19905;-77
2021/03/19 10:53:18;;;;;;;2.28;0.00;;;8.80;64.70;;;;;;4999387;28;20060;-75
2021/03/19 10:55:48;;;;;;;1.45;0.00;;;8.90;66.50;;;;;;5016261;28;20084;-76
2021/03/19 10:58:30;;;;;;;2.00;0.13;;;9.10;68.00;;;;;;5018928;28;20026;-73
2021/03/19 11:00:56;;;;;;;2.17;0.10;;;9.30;65.50;;;;;;5019107;28;20426;-77
2021/03/19 11:03:30;;;;;;;0.57;0.00;;;9.30;66.60;;;;;;5000204;28;20018;-73
2021/03/19 11:06:04;;;;;;;1.42;0.00;;;9.40;65.60;;;;;;5016745;28;20030;-76
2021/03/19 11:08:30;;;;;;;2.38;0.20;;;9.50;63.30;;;;;;4997130;28;20022;-76
2021/03/19 11:10:56;;;;;;;0.70;0.20;;;9.60;63.90;;;;;;4997304;28;20062;-74
2021/03/19 11:13:33;;;;;;;1.65;0.20;;;9.70;63.40;;;;;;4980461;28;20033;-76
2021/03/19 11:16:02;;;;;;;3.42;0.00;;;9.80;62.10;;;;;;4997239;28;20396;-74
2021/03/19 11:18:34;;;;;;;0.40;0.20;;;9.80;61.80;;;;;;5018534;23;20141;-74
2021/03/19 11:21:22;;;;;;;0.52;0.00;;;10.00;58.60;;;;;;5056629;28;20025;-74
2021/03/19 11:24:14;;;;;;;3.25;0.10;;;10.00;59.50;;;;;;5056272;28;20047;-74
2021/03/19 11:26:40;;;;;;;0.00;0.00;;;9.90;60.10;;;;;;5056124;28;20051;-75
2021/03/19 11:29:08;;;;;;;0.40;0.00;;;10.10;61.00;;;;;;5054826;28;20025;-74
2021/03/19 11:32:08;;;;;;;1.20;0.00;;;10.20;61.70;;;;;;5063923;23;20037;-89
2021/03/19 11:34:44;;;;;;;0.50;0.10;;;10.50;60.60;;;;;;5020878;28;20034;-89
2021/03/19 11:37:37;;;;;;;3.22;0.55;;;10.50;63.50;;;;;;5020885;28;20030;-88
2021/03/19 11:40:03;;;;;;;1.25;0.17;;;10.70;62.70;;;;;;5037762;28;20091;-88
2021/03/19 11:42:44;;;;;;;2.50;0.03;;;10.80;58.50;;;;;;5039857;28;20124;-88
2021/03/19 11:45:41;;;;;;;1.42;0.40;;;10.60;58.70;;;;;;5042261;28;20128;-89
2021/03/19 11:48:31;;;;;;;0.88;0.13;;;11.00;58.00;;;;;;5030896;28;20037;-89
2021/03/19 11:51:23;;;;;;;2.17;0.20;;;8.40;57.80;;;;;;5041193;28;20100;-88
2021/03/19 11:53:48;;;;;;;5.10;0.25;;;12.50;61.60;;;;;;5023573;28;20475;-89
2021/03/19 11:56:14;;;;;;;0.20;0.00;;;12.40;66.60;;;;;;5039155;28;20033;-88
2021/03/19 11:58:43;;;;;;;0.95;0.00;;;10.90;62.40;;;;;;5040834;28;20108;-89
2021/03/19 12:01:09;;;;;;;2.20;0.17;;;8.80;62.40;;;;;;5041393;28;20112;-89
2021/03/19 12:03:50;;;;;;;0.80;0.30;;;11.50;60.10;;;;;;5039840;28;20107;-87
2021/03/19 12:06:18;;;;;;;0.68;0.15;;;11.50;60.20;;;;;;5038215;28;20022;-86
2021/03/19 12:08:45;;;;;;;4.05;0.15;;;14.20;59.40;;;;;;5040080;28;20022;-88
2021/03/19 12:11:26;;;;;;;0.63;0.20;;;11.80;58.40;;;;;;5038830;28;20124;-89
2021/03/19 12:13:53;;;;;;;0.70;0.00;;;12.00;58.90;;;;;;5039788;28;20453;-89
2021/03/19 12:16:19;;;;;;;1.95;0.10;;;12.00;57.80;;;;;;5036267;28;20030;-88
2021/03/19 12:18:45;;;;;;;1.65;0.10;;;11.80;56.40;;;;;;5036958;28;20032;-88
2021/03/19 12:21:11;;;;;;;0.60;0.10;;;15.10;60.00;;;;;;5039173;28;20029;-86
2021/03/19 12:23:37;;;;;;;6.13;0.38;;;13.80;57.50;;;;;;5037801;28;20552;-89
2021/03/19 12:26:03;;;;;;;3.50;0.00;;;11.30;55.30;;;;;;5038432;28;20112;-83
2021/03/19 12:28:29;;;;;;;2.47;0.00;;;12.40;54.60;;;;;;5052609;28;20014;-87
2021/03/19 12:30:57;;;;;;;0.47;0.10;;;14.10;52.60;;;;;;5052103;28;20073;-87
2021/03/19 12:33:24;;;;;;;0.77;0.10;;;14.60;52.90;;;;;;5045560;28;20083;-87
2021/03/19 12:35:50;;;;;;;0.65;0.10;;;12.30;51.60;;;;;;5037342;28;20065;-87
2021/03/19 12:38:17;;;;;;;0.75;0.00;;;15.00;52.60;;;;;;5035743;28;20034;-89
2021/03/19 12:40:43;;;;;;;2.30;0.13;;;12.60;52.70;;;;;;5035560;28;20021;-87
2021/03/19 12:43:11;;;;;;;0.38;0.00;;;13.00;51.90;;;;;;5036012;28;20449;-88
2021/03/19 12:45:37;;;;;;;0.40;0.00;;;13.30;51.30;;;;;;5035438;28;20479;-88
2021/03/19 12:48:04;;;;;;;2.40;0.00;;;13.50;48.20;;;;;;5035592;28;20033;-87
2021/03/19 12:50:31;;;;;;;0.57;0.00;;;13.70;52.70;;;;;;5036069;28;20013;-88
2021/03/19 12:52:58;;;;;;;2.15;0.30;;;14.40;50.30;;;;;;5036809;28;20018;-89
2021/03/19 12:55:26;;;;;;;2.22;0.28;;;13.90;50.50;;;;;;5036160;28;20029;-88
2021/03/19 12:57:52;;;;;;;1.13;0.10;;;13.90;51.40;;;;;;5034985;28;20025;-87
2021/03/19 13:00:27;;;;;;;0.30;0.08;;;13.70;51.10;;;;;;5035149;28;20032;-89
2021/03/19 13:02:53;;;;;;;0.85;0.00;;;13.70;52.60;;;;;;5035774;28;20032;-88
2021/03/19 13:05:21;;;;;;;1.70;0.00;;;13.80;48.80;;;;;;5036583;28;20481;-88
2021/03/19 13:07:47;;;;;;;0.10;0.00;;;13.70;50.30;;;;;;5036370;28;20025;-88
2021/03/19 13:10:14;;;;;;;1.45;0.00;;;13.90;50.20;;;;;;5036216;28;20032;-88
2021/03/19 13:12:40;;;;;;;1.58;0.00;;;14.00;48.20;;;;;;5035425;28;20025;-88
2021/03/19 13:15:08;;;;;;;0.20;0.03;;;13.80;49.80;;;;;;5034940;28;20032;-87
2021/03/19 13:17:37;;;;;;;0.15;0.00;;;13.80;49.20;;;;;;5035050;28;20025;-88
2021/03/19 13:20:05;;;;;;;;;;;16.60;51.90;;;;;;5036866;28;20021;-88
2021/03/19 13:22:30;;;;;;;2.90;0.22;;;14.00;47.40;;;;;;5035525;28;19905;-88
2021/03/19 13:25:02;;;;;;;0.47;0.00;;;14.40;51.90;;;;;;5041471;28;20017;-87
2021/03/19 13:27:28;;;;;;;1.33;0.00;;;14.40;47.60;;;;;;5034404;28;20111;-88
2021/03/19 13:29:54;;;;;;;0.10;0.00;;;15.10;48.80;;;;;;5033914;28;20021;-87
2021/03/19 13:32:19;;;;;;;0.95;0.00;;;14.40;48.90;;;;;;5033750;28;20036;-89
2021/03/19 13:34:48;;;;;;;0.32;0.00;;;14.50;46.80;;;;;;5037181;28;20017;-85
2021/03/19 13:37:14;;;;;;;1.00;0.00;;;14.70;48.70;;;;;;5035534;28;20032;-87
2021/03/19 13:39:42;;;;;;;3.47;0.10;;;14.80;46.30;;;;;;5034931;28;20025;-89
2021/03/19 13:42:08;;;;;;;0.20;0.00;;;14.70;46.70;;;;;;5034028;28;20025;-87